Time;durP1;ratioP1;P1;durP2;ratioP2;P2;SDS_P1;SDS_P2;PMS_P1;PMS_P2;Temp;Humidity;BMP_temperature;BMP_pressure;BME280_temperature;BME280_humidity;BME280_pressure;Samples;Min_cycle;Max_cycle;Signal;HPM_P1;HPM_P2
2021/09/26 08:36:44;;;;;;;8.75;5.65;;;22.70;99.90;;;;;;4948206;23;20285;-77
2021/09/26 08:39:11;;;;;;;10.10;5.78;;;22.90;99.90;;;;;;4955273;29;20219;-73
2021/09/26 08:41:38;;;;;;;9.05;5.45;;;22.80;99.90;;;;;;4949326;28;20239;-73
2021/09/26 08:44:06;;;;;;;11.40;6.47;;;22.80;99.90;;;;;;4936331;29;20220;-73
2021/09/26 08:46:33;;;;;;;7.45;5.25;;;22.90;99.90;;;;;;4936128;29;20211;-73
2021/09/26 08:49:00;;;;;;;7.68;5.20;;;22.70;99.90;;;;;;4936089;29;20216;-73
2021/09/26 08:51:27;;;;;;;9.80;4.80;;;22.80;99.90;;;;;;4935178;29;20290;-73
2021/09/26 08:53:56;;;;;;;9.15;4.85;;;22.90;99.90;;;;;;4935561;29;20707;-71
2021/09/26 08:56:23;;;;;;;7.90;4.97;;;22.90;99.90;;;;;;4935369;29;20212;-74
2021/09/26 08:58:52;;;;;;;8.60;4.88;;;23.00;99.90;;;;;;4927119;29;20205;-74
2021/09/26 09:01:19;;;;;;;7.32;5.47;;;23.30;99.90;;;;;;4931880;29;20296;-75
2021/09/26 09:03:47;;;;;;;6.82;4.65;;;23.50;99.90;;;;;;4931895;29;20242;-74
2021/09/26 09:06:15;;;;;;;6.60;4.85;;;23.90;99.90;;;;;;4934657;29;20215;-76
2021/09/26 09:08:43;;;;;;;8.45;4.38;;;24.20;99.90;;;;;;4934401;29;20682;-73
2021/09/26 09:11:12;;;;;;;6.97;4.93;;;24.20;99.90;;;;;;4933703;29;20204;-73
2021/09/26 09:13:40;;;;;;;6.70;3.80;;;23.80;99.90;;;;;;4935020;29;20767;-73
2021/09/26 09:16:10;;;;;;;7.75;4.70;;;23.60;99.90;;;;;;4935424;29;20252;-75
2021/09/26 09:18:42;;;;;;;6.03;4.32;;;23.40;99.90;;;;;;4934748;29;20217;-73
2021/09/26 09:21:18;;;;;;;7.03;4.65;;;23.30;99.90;;;;;;4934702;29;20726;-72
2021/09/26 09:23:45;;;;;;;7.90;4.18;;;23.30;99.90;;;;;;4934807;29;20573;-73
2021/09/26 09:26:14;;;;;;;6.15;4.10;;;23.30;99.90;;;;;;4933752;29;20205;-73
2021/09/26 09:28:43;;;;;;;6.97;4.70;;;23.40;99.90;;;;;;4935267;29;20204;-85
2021/09/26 09:31:10;;;;;;;5.55;3.80;;;23.30;99.90;;;;;;4934835;29;20213;-72
2021/09/26 09:33:39;;;;;;;6.03;4.20;;;23.20;99.90;;;;;;4941139;29;20349;-76
2021/09/26 09:36:20;;;;;;;7.38;3.90;;;23.10;99.90;;;;;;4950919;29;20212;-75
2021/09/26 09:38:48;;;;;;;5.57;4.18;;;23.00;99.90;;;;;;4934408;29;20643;-75
2021/09/26 09:41:32;;;;;;;4.97;3.58;;;22.90;99.90;;;;;;4933639;29;20235;-72
2021/09/26 09:44:00;;;;;;;5.82;3.92;;;23.00;99.90;;;;;;4933820;29;20233;-75
2021/09/26 09:46:31;;;;;;;5.05;3.47;;;23.00;99.90;;;;;;4934086;29;20217;-74
2021/09/26 09:49:12;;;;;;;6.45;3.28;;;22.90;99.90;;;;;;4930034;29;20288;-72
2021/09/26 09:51:40;;;;;;;5.05;3.42;;;23.30;99.90;;;;;;4934184;29;20231;-72
2021/09/26 09:54:08;;;;;;;6.55;3.40;;;23.40;99.90;;;;;;4942361;29;20729;-72
2021/09/26 09:56:43;;;;;;;5.13;3.17;;;23.50;99.90;;;;;;4952624;29;20218;-73
2021/09/26 09:59:11;;;;;;;4.30;3.13;;;23.40;99.90;;;;;;4944768;29;20208;-74
2021/09/26 10:01:39;;;;;;;5.00;3.25;;;23.30;99.90;;;;;;4934304;29;20233;-73
2021/09/26 10:04:06;;;;;;;3.67;2.67;;;23.30;99.90;;;;;;4938368;29;20258;-73
2021/09/26 10:06:40;;;;;;;3.35;2.38;;;23.50;99.90;;;;;;4938567;29;20220;-73
2021/09/26 10:09:31;;;;;;;4.38;2.58;;;23.30;99.90;;;;;;4938590;29;20628;-72
2021/09/26 10:12:00;;;;;;;3.92;2.88;;;23.20;99.90;;;;;;4904648;29;20209;-73
2021/09/26 10:14:29;;;;;;;5.50;2.08;;;23.20;99.90;;;;;;4919482;29;20217;-72
2021/09/26 10:16:57;;;;;;;3.83;2.60;;;23.30;99.90;;;;;;4919683;29;20209;-73
2021/09/26 10:19:26;;;;;;;4.18;2.75;;;23.20;99.90;;;;;;4919750;29;20214;-72
2021/09/26 10:21:54;;;;;;;4.80;2.30;;;23.20;99.90;;;;;;4938492;29;20236;-74
2021/09/26 10:24:22;;;;;;;3.08;2.25;;;23.20;99.90;;;;;;4938458;29;20679;-73
2021/09/26 10:26:50;;;;;;;3.45;2.10;;;23.00;99.90;;;;;;4938573;29;20224;-73
2021/09/26 10:29:20;;;;;;;3.70;2.67;;;23.10;99.90;;;;;;4938242;29;20205;-78
2021/09/26 10:31:49;;;;;;;3.05;2.40;;;23.10;99.90;;;;;;4937378;29;20671;-75
2021/09/26 10:34:20;;;;;;;4.78;2.35;;;22.90;99.90;;;;;;4938412;29;20219;-74
2021/09/26 10:36:48;;;;;;;3.30;2.33;;;22.90;99.90;;;;;;4919151;29;20221;-76
2021/09/26 10:39:16;;;;;;;3.05;2.05;;;22.80;99.90;;;;;;4919323;29;20210;-75
2021/09/26 10:42:05;;;;;;;4.18;2.20;;;22.60;99.90;;;;;;4937181;29;20783;-75
2021/09/26 10:44:39;;;;;;;3.47;1.98;;;22.50;99.90;;;;;;4937861;29;20675;-71
2021/09/26 10:47:16;;;;;;;2.92;2.05;;;22.40;99.90;;;;;;4938639;29;20208;-72
2021/09/26 10:49:44;;;;;;;2.20;1.80;;;22.50;99.90;;;;;;4938225;29;20328;-71
2021/09/26 10:52:29;;;;;;;2.97;2.20;;;22.50;99.90;;;;;;4937550;29;20251;-73
2021/09/26 10:55:18;;;;;;;3.22;1.83;;;22.50;99.90;;;;;;4937276;29;20216;-72
2021/09/26 10:57:46;;;;;;;4.20;1.80;;;22.60;99.90;;;;;;4937694;29;20219;-72
2021/09/26 11:00:29;;;;;;;3.85;2.53;;;22.50;99.90;;;;;;4937687;29;20301;-71
2021/09/26 11:02:57;;;;;;;2.90;1.88;;;22.60;99.90;;;;;;4935145;29;20232;-73
2021/09/26 11:05:46;;;;;;;2.45;1.90;;;22.40;99.90;;;;;;4937674;29;20303;-74
2021/09/26 11:08:15;;;;;;;2.28;1.77;;;22.60;99.90;;;;;;4936650;29;20292;-75
2021/09/26 11:10:47;;;;;;;2.92;1.98;;;22.80;99.90;;;;;;4935186;29;20580;-74
2021/09/26 11:13:19;;;;;;;4.00;2.20;;;22.90;99.90;;;;;;4935521;29;20576;-76
2021/09/26 11:16:20;;;;;;;3.25;1.90;;;22.90;99.90;;;;;;4935898;29;20291;-74
2021/09/26 11:18:56;;;;;;;3.50;1.98;;;23.00;99.90;;;;;;4858770;29;20207;-71
2021/09/26 11:21:55;;;;;;;2.38;1.75;;;23.00;99.90;;;;;;4858689;29;20243;-73
2021/09/26 11:24:31;;;;;;;3.40;1.70;;;23.20;99.90;;;;;;4914637;29;20244;-75
2021/09/26 11:27:10;;;;;;;2.78;1.70;;;23.30;99.90;;;;;;4935990;29;20230;-75
2021/09/26 11:30:15;;;;;;;3.00;1.85;;;23.50;99.90;;;;;;4935895;29;20297;-73
2021/09/26 11:32:44;;;;;;;3.03;1.92;;;23.70;99.90;;;;;;4857620;29;20602;-75
2021/09/26 11:35:26;;;;;;;2.63;1.90;;;23.80;99.90;;;;;;4921685;29;20223;-73
2021/09/26 11:37:55;;;;;;;3.70;1.88;;;23.80;99.90;;;;;;4935394;29;20223;-72
2021/09/26 11:40:29;;;;;;;2.70;1.65;;;23.90;99.90;;;;;;4935287;29;20208;-73
2021/09/26 11:42:57;;;;;;;3.75;2.17;;;23.70;99.90;;;;;;4935591;29;20237;-70
2021/09/26 11:45:31;;;;;;;4.47;2.65;;;23.50;99.90;;;;;;4937106;29;20208;-69
2021/09/26 11:48:01;;;;;;;5.28;2.30;;;23.70;99.90;;;;;;4937281;29;20205;-70
2021/09/26 11:50:31;;;;;;;3.25;2.25;;;23.60;99.90;;;;;;4937176;29;20244;-70
2021/09/26 11:52:59;;;;;;;4.78;2.00;;;23.50;99.90;;;;;;4936648;29;20256;-69
2021/09/26 11:55:29;;;;;;;3.72;2.47;;;23.30;99.90;;;;;;4937247;29;20208;-70
2021/09/26 11:57:58;;;;;;;2.42;1.67;;;23.30;99.90;;;;;;4936518;29;20727;-70
2021/09/26 12:00:27;;;;;;;4.78;1.70;;;23.40;99.90;;;;;;4936818;29;20208;-69
2021/09/26 12:02:54;;;;;;;3.25;1.30;;;23.20;99.90;;;;;;4936640;29;20612;-69
2021/09/26 12:05:36;;;;;;;2.15;1.58;;;23.30;99.90;;;;;;4936626;29;20230;-69
2021/09/26 12:08:03;;;;;;;2.42;1.50;;;23.40;99.90;;;;;;4936474;29;20211;-70
2021/09/26 12:10:30;;;;;;;2.30;1.45;;;23.40;99.90;;;;;;4936613;29;20235;-71
2021/09/26 12:12:57;;;;;;;2.95;1.50;;;23.50;99.90;;;;;;4936361;29;20790;-72
2021/09/26 12:15:27;;;;;;;2.78;1.50;;;23.30;99.90;;;;;;4936677;29;20664;-70
2021/09/26 12:17:57;;;;;;;2.60;1.35;;;23.30;99.90;;;;;;4936243;29;20735;-72
2021/09/26 12:20:26;;;;;;;2.33;1.52;;;23.30;99.90;;;;;;4936375;29;20235;-70
